Huvudsida
METAR-TAF:

METAR-TAF

Flygplatser :

Sjiraks internationella flygplats

Gjumri, Armenien

latitud: 40-45-01N, longitud: 043-51-33E, höjd: 1524 m

Aktuellt väderrapport

Denna rapport gjordes för 22 minuter sedan, klockan 09:00 UTC
Vind 7 kt från nordväst, varierande mellan väst och nord
Temperatur 23°C
Fuktighet 29%
Tryck 1015 hPa
Sikt 10 km eller mer

METAR: UDSG 220900Z 31007KT 270V350 9999 NSC 23/04 Q1015 NOSIG

Tid: 13:22 (09:22 UTC)

Väderprognos

Denna rapport gjordes för 4 timmar och 24 minuter sedan, klockan 04:58 UTC
Prognos gäller från 22 kl. 06 UTC till 23 kl. 06 UTC
Vind 6 kt från nord
Sikt 10 km eller mer
Få moln på en höjd av 5000 ft
Temporärt
från 22 kl. 09 UTC till 22 kl. 18 UTC
Vind 16 kt varierande vindriktning
Spridda moln på en höjd av 4000 ft, Cumulonimbus.

TAF: UDSG 220458Z 2206/2306 36006KT 9999 FEW050 TEMPO 2209/2218 VRB16KT SCT040CB

Aktuella väderrapporter och prognoser från 4000 flygplatser (METAR- och TAF-rapporter).

De tillgängliga stationerna syns som gula och röda prickar på kartan.

För musen över prickarna för att se namnen på stationerna.

Klicka sedan för att få väderrapporter och prognoser.

För att ändra kartan: Klicka på de gröna knapparna med ett svart kors på för att zooma in; den gröna knappen med ett streck på för att zooma ut; eller på de gröna pilarna för angränsande kartor.


METAR-TAF: